This is the latest recevied weather packets stored in our database for station/object W4CKA. If no packets are shown the sender has not sent any weather packets the latest 10 day(s).
| Time | Temp. | Humidity | Pressure | Rain* | Wind** | Luminosity | Snow |
|---|---|---|---|---|---|---|---|
| 1777950476 | 12.78° C | 83% | 1055 hPa | 0 mm | - | 0 W/m² | - |
| 1777949873 | 12.78° C | 83% | 1055.1 hPa | 0 mm | - | 0 W/m² | - |
| 1777949269 | 12.78° C | 83% | 1055.1 hPa | 0 mm | - | 0 W/m² | - |
| 1777948669 | 12.78° C | 82% | 1055.2 hPa | 0 mm | - | 0 W/m² | - |
| 1777948069 | 13.89° C | 78% | 1055.1 hPa | 0 mm | - | 0 W/m² | - |
| 1777947468 | 13.89° C | 80% | 1055.1 hPa | 0 mm | - | 0 W/m² | - |
| 1777946867 | 14.44° C | 76% | 1054.8 hPa | 0 mm | - | 0 W/m² | - |
| 1777946266 | 14.44° C | 77% | 1055 hPa | 0 mm | - | 0 W/m² | - |
| 1777945666 | 14.44° C | 76% | 1055 hPa | 0 mm | - | 0 W/m² | - |
| 1777945065 | 15° C | 75% | 1054.9 hPa | 0 mm | - | 0 W/m² | - |
| 1777944460 | 15° C | 74% | 1054.7 hPa | 0 mm | - | 0 W/m² | - |
| 1777943859 | 15.56° C | 73% | 1054.7 hPa | 0 mm | - | 0 W/m² | - |
| 1777943258 | 16.11° C | 71% | 1054.6 hPa | 0 mm | - | 0 W/m² | - |
| 1777942657 | 16.11° C | 70% | 1054.6 hPa | 0 mm | - | 0 W/m² | - |
| 1777942057 | 16.67° C | 67% | 1054.4 hPa | 0 mm | - | 0 W/m² | - |
| 1777941456 | 17.78° C | 64% | 1054.5 hPa | 0 mm | - | 0 W/m² | - |
| 1777940856 | 18.33° C | 62% | 1054.2 hPa | 0 mm | - | 0 W/m² | - |
| 1777940257 | 18.89° C | 57% | 1054.3 hPa | 0 mm | - | 0 W/m² | - |
| 1777939657 | 20° C | 53% | 1054.2 hPa | 0 mm | - | 5 W/m² | - |
| 1777939051 | 21.11° C | 51% | 1054.2 hPa | 0 mm | - | 12 W/m² | - |
| 1777938450 | 21.67° C | 48% | 1054.2 hPa | 0 mm | - | 18 W/m² | - |
| 1777937849 | 22.22° C | 46% | 1054.1 hPa | 0 mm | - | 28 W/m² | - |
| 1777937248 | 23.33° C | 45% | 1054.2 hPa | 0 mm | - | 55 W/m² | - |
| 1777936648 | 23.89° C | 44% | 1054.2 hPa | 0 mm | - | 77 W/m² | - |
| 1777936046 | 24.44° C | 42% | 1054.2 hPa | 0 mm | - | 87 W/m² | - |
* Rain latest hour (hover to see other rain measurements)
** Current wind speed in m/s (hover to see current wind gust speed)